SBOSBO CPT / FACT
Speedbird OnlineSpeedbird Online CPT / FACT

Cape Town International Airport
23:10 17.1°C

Location Cape Town, South Africa
Latitude: -33.9648017883
Longitude: 18.6016998291
Local Time 23:10 on 29 May 2024
UTC +2 hours (Africa/Johannesburg)
Currency £1 equals ZAR 23.27
METAR FACT 292000Z 35021KT 9999 FEW020 BKN035 17/14 Q1009 NOSIG
TAF TAF FACT 291600Z 2918/3024 32015KT 9999 BKN014 TX19/3012Z TN14/3005Z PROB40 TEMPO 3000/3007 32022G35KT 4000 -DZ BKN010 PROB40 TEMPO 3003/3006 3000 -RA BKN006 FM300700 24010KT 9999 -SHRA BKN020 FM301600 VRB03KT 9999 BKN020
Weather As Of 29 May 2024 23:10
Description Broken clouds
Wind 44 km/h from North (350°)
Cloud Cover 75%
Precipitation Rain: none, Snow: none
Sunrise 07:40
Sunset 17:45
NOTAM 79 active NOTAM
Rotations During the last 90 days there were
115 flights from LHR
12 flights from LGW
112 flights to LHR
11 flights to LGW
Lounges Bidvest Premier Lounge - TEMPORARILY CLOSED, Departure Terminal
British Airways Lounge , International
Web Airport Website | Wikipedia
Codes IATA: CPT
ICAO: FACT
Altitude 46 Meter / 151 Feet
Distance 9,674 KM / 6,011 Miles
from London.
Runways
RunwayLength (m)Surface
013201Asphalt
161701Asphalt
193201Asphalt
341701Asphalt
Radio
TypeDescriptionFrequency
ACApron Control122.65
APPApproach119.7
APPDirector124.5
ATISATIS127
ATISLong Range ATIS127.6
GNDGround121.9
TWRTower118.1
Live ATC



Support Speedbird Online

© 2017-2024 Speedbird Online